Time;durP1;ratioP1;P1;durP2;ratioP2;P2;SDS_P1;SDS_P2;PMS_P1;PMS_P2;Temp;Humidity;BMP_temperature;BMP_pressure;BME280_temperature;BME280_humidity;BME280_pressure;Samples;Min_cycle;Max_cycle;Signal;HPM_P1;HPM_P2
2023/07/16 00:00:19;;;;;;;12.07;9.02;;;;;;;19.16;96.68;95752.50;2114795;28;20052;-62
2023/07/16 00:01:24;;;;;;;12.48;9.32;;;;;;;19.13;97.13;95745.72;2114756;28;20066;-62
2023/07/16 00:02:25;;;;;;;16.83;10.15;;;;;;;19.15;97.33;95749.06;2115697;28;20048;-62
2023/07/16 00:03:26;;;;;;;14.00;9.57;;;;;;;19.14;97.67;95762.34;2114865;28;20048;-62
2023/07/16 00:04:27;;;;;;;16.17;10.68;;;;;;;19.07;97.95;95759.41;2115046;28;20055;-63
2023/07/16 00:05:28;;;;;;;16.33;10.25;;;;;;;19.13;98.22;95768.56;2115702;28;20051;-57
2023/07/16 00:06:30;;;;;;;12.50;10.05;;;;;;;19.09;97.98;95770.63;2115567;28;20419;-57
2023/07/16 00:07:31;;;;;;;14.68;11.07;;;;;;;19.03;98.30;95760.63;2116054;28;20047;-57
2023/07/16 00:08:32;;;;;;;16.33;11.43;;;;;;;19.08;98.17;95783.91;2115019;28;20052;-57
2023/07/16 00:09:34;;;;;;;17.65;11.45;;;;;;;19.07;98.30;95788.34;2114765;28;20059;-57
2023/07/16 00:10:35;;;;;;;14.57;11.95;;;;;;;18.98;98.71;95785.66;2115991;28;20052;-57
2023/07/16 00:11:36;;;;;;;17.30;11.93;;;;;;;19.03;98.37;95797.47;2115184;28;20059;-57
2023/07/16 00:12:38;;;;;;;25.02;12.00;;;;;;;18.95;98.81;95805.16;2115243;28;20063;-57
2023/07/16 00:13:41;;;;;;;17.27;11.25;;;;;;;19.06;99.57;95843.72;2115840;28;20040;-57
2023/07/16 00:14:42;;;;;;;17.75;11.65;;;;;;;19.02;99.68;95879.16;2115453;28;20043;-57
2023/07/16 00:15:43;;;;;;;16.30;12.25;;;;;;;18.97;100.00;95913.75;2115564;28;20070;-57
2023/07/16 00:16:44;;;;;;;17.85;10.82;;;;;;;18.96;100.00;95943.66;2115694;28;20043;-57
2023/07/16 00:17:45;;;;;;;17.90;10.82;;;;;;;19.00;100.00;95952.97;2115717;28;20471;-57
2023/07/16 00:18:46;;;;;;;17.38;10.65;;;;;;;19.01;100.00;95954.66;2114888;28;20062;-57
2023/07/16 00:19:47;;;;;;;14.82;9.57;;;;;;;19.04;99.71;95937.78;2115744;28;20047;-57
2023/07/16 00:20:48;;;;;;;13.57;9.50;;;;;;;18.98;98.69;95933.00;2115084;28;20403;-56
2023/07/16 00:21:50;;;;;;;13.30;9.35;;;;;;;19.04;99.12;95958.84;2115254;28;20055;-58
2023/07/16 00:22:51;;;;;;;12.18;9.52;;;;;;;19.02;99.29;95972.09;2115623;28;20036;-58
2023/07/16 00:23:52;;;;;;;13.70;9.27;;;;;;;18.99;98.39;95972.34;2115586;28;20351;-57
2023/07/16 00:24:53;;;;;;;13.98;8.52;;;;;;;18.95;98.43;95958.63;2115834;28;20054;-57
2023/07/16 00:25:54;;;;;;;11.32;9.05;;;;;;;18.98;98.08;95978.59;2114938;28;20047;-56
2023/07/16 00:26:55;;;;;;;12.05;8.63;;;;;;;18.87;97.99;95965.44;2115878;28;20395;-57
2023/07/16 00:27:57;;;;;;;14.50;8.75;;;;;;;18.97;97.19;95989.22;2106466;28;20050;-58
2023/07/16 00:28:58;;;;;;;12.10;8.45;;;;;;;18.96;97.55;95983.13;2106389;28;20503;-59
2023/07/16 00:29:59;;;;;;;11.32;8.32;;;;;;;18.90;97.67;95967.84;2106582;28;20047;-58
2023/07/16 00:31:01;;;;;;;14.13;7.72;;;;;;;18.93;96.98;95967.59;2106606;28;20467;-58
2023/07/16 00:32:02;;;;;;;10.18;8.43;;;;;;;18.93;96.60;95976.31;2106326;28;20032;-58
2023/07/16 00:33:03;;;;;;;10.75;8.93;;;;;;;18.98;97.29;95978.59;2115227;28;20055;-58
2023/07/16 00:34:04;;;;;;;13.43;8.30;;;;;;;18.99;97.31;95969.72;2115410;28;20040;-58
2023/07/16 00:35:05;;;;;;;12.75;8.60;;;;;;;19.01;98.04;95975.72;2115701;28;20039;-58
2023/07/16 00:36:06;;;;;;;9.90;7.93;;;;;;;18.99;97.18;95979.44;2115646;28;20440;-58
2023/07/16 00:37:08;;;;;;;12.75;7.40;;;;;;;19.00;97.14;95983.72;2106071;28;20059;-59
2023/07/16 00:38:09;;;;;;;9.77;6.78;;;;;;;18.99;95.76;95985.50;2106417;28;20040;-58
2023/07/16 00:39:10;;;;;;;10.07;7.43;;;;;;;18.98;95.79;95999.66;2106642;28;20083;-58
2023/07/16 00:40:11;;;;;;;9.95;7.78;;;;;;;18.99;96.30;96003.09;2098122;28;20055;-58
2023/07/16 00:41:13;;;;;;;9.63;7.13;;;;;;;19.00;95.83;96005.59;2106845;28;20032;-58
2023/07/16 00:42:14;;;;;;;10.25;7.80;;;;;;;19.00;96.42;96008.22;2115441;28;20039;-58
2023/07/16 00:43:15;;;;;;;10.82;7.80;;;;;;;19.03;96.33;96015.03;2105866;28;20052;-58
2023/07/16 00:44:16;;;;;;;11.55;7.72;;;;;;;19.02;96.72;96016.00;2106035;28;20115;-58
2023/07/16 00:45:18;;;;;;;10.68;7.50;;;;;;;19.03;96.27;96008.00;2115389;28;20066;-58
2023/07/16 00:46:19;;;;;;;11.85;7.70;;;;;;;19.03;96.02;96005.38;2114885;28;20061;-58
2023/07/16 00:47:20;;;;;;;10.27;7.85;;;;;;;18.97;96.23;95992.69;2105684;28;20048;-58
2023/07/16 00:48:21;;;;;;;11.23;8.23;;;;;;;19.00;96.14;95997.69;2097038;28;20056;-58
2023/07/16 00:49:23;;;;;;;13.85;7.75;;;;;;;18.98;96.34;95994.38;2106271;28;20110;-58
2023/07/16 00:50:24;;;;;;;12.20;7.80;;;;;;;19.08;95.92;96005.81;2106335;28;20114;-58
2023/07/16 00:51:25;;;;;;;13.75;8.25;;;;;;;19.07;97.44;95998.88;2105846;28;20067;-58
2023/07/16 00:52:28;;;;;;;10.48;7.68;;;;;;;19.11;96.32;96005.59;2115337;28;20036;-58
2023/07/16 00:53:30;;;;;;;12.50;8.25;;;;;;;19.05;96.77;95992.06;2089237;28;20053;-58
2023/07/16 00:54:31;;;;;;;10.60;8.00;;;;;;;19.11;96.41;96002.97;2081324;28;20061;-58
2023/07/16 00:55:32;;;;;;;11.77;7.43;;;;;;;19.06;95.43;95997.22;2097690;28;20063;-58
2023/07/16 00:56:33;;;;;;;12.48;7.50;;;;;;;19.13;95.96;96015.97;2105329;28;20055;-57
2023/07/16 00:57:35;;;;;;;10.35;7.20;;;;;;;19.11;95.44;96018.75;2089186;28;20104;-58
2023/07/16 00:58:36;;;;;;;10.23;7.60;;;;;;;19.10;95.73;96013.59;2098181;28;20051;-58
2023/07/16 00:59:37;;;;;;;10.98;8.38;;;;;;;19.12;95.93;96023.03;2115359;28;20043;-58
2023/07/16 01:00:39;;;;;;;10.50;7.32;;;;;;;19.02;96.17;96001.06;2106072;28;20364;-58
2023/07/16 01:01:40;;;;;;;11.65;7.40;;;;;;;19.07;96.05;96012.03;2105899;28;20075;-56
2023/07/16 01:02:42;;;;;;;11.05;7.50;;;;;;;19.12;96.00;96016.94;2115202;28;20047;-58
2023/07/16 01:03:43;;;;;;;11.15;7.75;;;;;;;19.13;96.04;96008.06;2096860;28;20452;-58
2023/07/16 01:04:44;;;;;;;12.00;7.63;;;;;;;19.14;96.43;96015.03;2089824;28;20036;-58
2023/07/16 01:05:53;;;;;;;13.98;7.75;;;;;;;19.15;96.46;96012.25;2106004;28;20056;-58
2023/07/16 01:06:56;;;;;;;8.63;6.93;;;;;;;19.08;96.00;96004.97;2114599;28;20039;-58
2023/07/16 01:07:59;;;;;;;9.10;7.40;;;;;;;19.16;96.03;96015.72;2097645;28;20048;-58
2023/07/16 01:09:06;;;;;;;10.05;7.25;;;;;;;19.07;95.80;95998.06;2098380;28;20056;-58
2023/07/16 01:10:08;;;;;;;10.45;8.27;;;;;;;19.15;95.92;96020.16;2115021;28;20040;-58
2023/07/16 01:11:09;;;;;;;12.13;8.23;;;;;;;19.15;96.33;96017.53;2097561;28;20044;-58
2023/07/16 01:12:10;;;;;;;10.05;7.32;;;;;;;19.17;96.22;96007.72;2089567;28;20036;-58
2023/07/16 01:13:11;;;;;;;12.40;8.32;;;;;;;19.16;96.55;96013.09;2080312;28;20058;-58
2023/07/16 01:14:13;;;;;;;12.48;7.95;;;;;;;19.17;96.56;96018.25;2097077;28;20148;-58
2023/07/16 01:15:14;;;;;;;10.85;8.23;;;;;;;19.17;96.63;96026.13;2115039;28;20039;-58
2023/07/16 01:16:22;;;;;;;9.88;7.68;;;;;;;19.14;96.96;96021.13;2114264;28;20229;-58
2023/07/16 01:17:23;;;;;;;11.35;6.68;;;;;;;19.13;95.81;96023.88;2115219;28;20042;-58
2023/07/16 01:18:24;;;;;;;8.95;6.38;;;;;;;19.12;94.80;96024.84;2114590;28;20058;-58
2023/07/16 01:19:25;;;;;;;9.52;7.47;;;;;;;19.12;94.45;96030.94;2114319;28;20055;-58
2023/07/16 01:20:27;;;;;;;10.90;6.90;;;;;;;19.14;94.84;96031.66;2105590;28;20056;-58
2023/07/16 01:21:33;;;;;;;11.18;6.93;;;;;;;19.13;94.98;96027.34;2106111;28;20495;-58
2023/07/16 01:22:59;;;;;;;10.40;6.78;;;;;;;19.14;95.65;96034.28;2097199;28;20123;-58
2023/07/16 01:24:10;;;;;;;9.60;7.28;;;;;;;19.05;95.47;96028.91;2096185;28;20435;-58
2023/07/16 01:25:23;;;;;;;8.55;7.10;;;;;;;19.12;95.48;96048.53;2098865;28;20075;-58
2023/07/16 01:26:27;;;;;;;9.13;7.18;;;;;;;19.08;95.62;96052.34;2107513;28;20048;-58
2023/07/16 01:27:56;;;;;;;11.60;7.10;;;;;;;19.10;95.84;96047.81;2115074;28;20039;-58
2023/07/16 01:29:09;;;;;;;10.13;7.43;;;;;;;19.07;95.77;96054.16;2105452;28;20044;-58
2023/07/16 01:30:11;;;;;;;8.82;7.07;;;;;;;18.96;95.90;96056.81;2090895;28;20060;-58
2023/07/16 01:31:12;;;;;;;10.43;7.45;;;;;;;19.00;95.46;96070.56;2097127;28;20052;-58
2023/07/16 01:32:14;;;;;;;9.15;7.13;;;;;;;18.97;96.22;96074.25;2115059;28;20055;-58
2023/07/16 01:33:15;;;;;;;9.00;7.00;;;;;;;18.95;96.07;96073.53;2097222;28;20064;-58
2023/07/16 01:34:16;;;;;;;10.43;7.05;;;;;;;18.97;96.68;96070.81;2088741;28;20519;-58
2023/07/16 01:35:17;;;;;;;9.93;7.25;;;;;;;18.92;96.32;96060.63;2106046;28;20055;-57
2023/07/16 01:36:19;;;;;;;13.13;7.18;;;;;;;18.82;96.75;96050.03;2105418;28;20059;-58
2023/07/16 01:37:20;;;;;;;13.85;7.68;;;;;;;18.83;97.28;96046.44;2097483;28;20163;-58
2023/07/16 01:38:23;;;;;;;16.38;8.10;;;;;;;18.80;98.10;96049.31;2105926;28;20044;-58
2023/07/16 01:39:24;;;;;;;13.88;8.48;;;;;;;18.77;98.39;96043.47;2105991;28;20052;-58
2023/07/16 01:40:25;;;;;;;15.25;8.52;;;;;;;18.75;99.29;96045.38;2097575;28;20082;-58
2023/07/16 01:41:26;;;;;;;12.25;9.38;;;;;;;18.73;99.26;96041.00;2096996;28;20048;-58
2023/07/16 01:42:27;;;;;;;13.25;8.43;;;;;;;18.67;98.93;96044.13;2106156;28;20526;-57
2023/07/16 01:43:29;;;;;;;13.57;8.65;;;;;;;18.69;99.12;96042.22;2106110;28;20055;-57
2023/07/16 01:44:30;;;;;;;10.07;8.27;;;;;;;18.66;99.60;96053.00;2106159;28;20368;-58
2023/07/16 01:45:31;;;;;;;15.73;9.60;;;;;;;18.64;99.95;96057.53;2097454;28;20048;-58
2023/07/16 01:46:32;;;;;;;13.35;8.73;;;;;;;18.60;100.00;96060.50;2105550;28;20423;-58
2023/07/16 01:47:42;;;;;;;13.88;9.90;;;;;;;18.51;100.00;96043.66;2114939;28;20043;-58
2023/07/16 01:48:45;;;;;;;13.20;9.77;;;;;;;18.57;100.00;96061.59;2106081;28;20055;-58
2023/07/16 01:49:46;;;;;;;13.98;9.95;;;;;;;18.60;100.00;96055.25;2096935;28;20056;-58
2023/07/16 01:50:48;;;;;;;13.73;10.70;;;;;;;18.57;100.00;96061.59;2097827;28;20055;-58
2023/07/16 01:51:50;;;;;;;17.05;10.05;;;;;;;18.55;100.00;96060.91;2105932;28;20039;-57
2023/07/16 01:52:51;;;;;;;16.13;10.60;;;;;;;18.56;100.00;96056.47;2113985;28;20467;-58
2023/07/16 01:53:52;;;;;;;13.85;9.95;;;;;;;18.55;100.00;96060.91;2105140;28;20044;-58
2023/07/16 01:54:53;;;;;;;13.85;9.70;;;;;;;18.56;100.00;96054.66;2105742;28;20432;-57
2023/07/16 01:55:56;;;;;;;15.10;10.07;;;;;;;18.52;100.00;96048.81;2114423;28;20047;-57
2023/07/16 01:56:57;;;;;;;13.70;9.95;;;;;;;18.51;100.00;96056.81;2105794;28;20044;-57
2023/07/16 01:57:58;;;;;;;12.90;9.90;;;;;;;18.50;100.00;96058.63;2097679;28;20040;-58
2023/07/16 01:58:59;;;;;;;13.45;10.07;;;;;;;18.44;100.00;96055.63;2097128;28;20051;-58
2023/07/16 02:00:00;;;;;;;13.85;10.82;;;;;;;18.49;100.00;96067.44;2105539;28;20048;-58
2023/07/16 02:01:01;;;;;;;12.38;9.73;;;;;;;18.48;100.00;96073.66;2114449;28;20511;-58
2023/07/16 02:02:03;;;;;;;16.00;10.65;;;;;;;18.49;100.00;96066.59;2106028;28;20054;-58
2023/07/16 02:03:04;;;;;;;13.63;10.93;;;;;;;18.47;100.00;96068.50;2105768;28;20051;-58
2023/07/16 02:04:06;;;;;;;15.07;11.05;;;;;;;18.43;100.00;96062.66;2104795;28;20047;-58
2023/07/16 02:05:09;;;;;;;16.23;11.45;;;;;;;18.52;100.00;96076.88;2097500;28;20060;-58
2023/07/16 02:06:10;;;;;;;15.35;11.13;;;;;;;18.52;100.00;96077.75;2097835;28;20044;-58
2023/07/16 02:07:11;;;;;;;15.38;11.43;;;;;;;18.52;100.00;96077.75;2104952;28;20055;-58
2023/07/16 02:08:12;;;;;;;15.93;11.55;;;;;;;18.53;100.00;96068.06;2114354;28;20056;-58
2023/07/16 02:09:13;;;;;;;13.98;10.27;;;;;;;18.46;100.00;96056.34;2115174;28;20424;-58
2023/07/16 02:10:14;;;;;;;15.60;10.88;;;;;;;18.54;100.00;96068.88;2114092;28;20070;-58
2023/07/16 02:11:16;;;;;;;15.55;10.80;;;;;;;18.46;100.00;96062.44;2105461;28;20048;-58
2023/07/16 02:12:17;;;;;;;15.05;10.77;;;;;;;18.46;100.00;96066.84;2097830;28;20512;-58
2023/07/16 02:13:18;;;;;;;15.43;11.20;;;;;;;18.45;100.00;96065.19;2104999;28;20059;-58
2023/07/16 02:14:19;;;;;;;17.13;11.07;;;;;;;18.55;100.00;96092.44;2104967;28;20048;-58
2023/07/16 02:15:21;;;;;;;14.35;10.65;;;;;;;18.43;100.00;96074.97;2097549;28;20052;-58
2023/07/16 02:16:22;;;;;;;16.42;11.23;;;;;;;18.51;100.00;96094.47;2105974;28;20040;-58
2023/07/16 02:17:24;;;;;;;13.82;11.05;;;;;;;18.51;100.00;96097.09;2105854;28;20055;-58
2023/07/16 02:18:25;;;;;;;16.02;12.60;;;;;;;18.51;100.00;96097.09;2105024;28;20067;-58
2023/07/16 02:19:26;;;;;;;21.27;14.45;;;;;;;18.55;100.00;96102.09;2105913;28;20052;-58
2023/07/16 02:20:27;;;;;;;15.13;11.80;;;;;;;18.59;100.00;96101.75;2106009;28;20044;-58
2023/07/16 02:21:28;;;;;;;16.58;11.75;;;;;;;18.61;100.00;96097.22;2114865;28;20047;-58
2023/07/16 02:22:29;;;;;;;15.18;11.98;;;;;;;18.62;100.00;96101.53;2114773;28;20051;-58
2023/07/16 02:23:32;;;;;;;16.05;12.63;;;;;;;18.64;100.00;96101.41;2105649;28;20056;-58
2023/07/16 02:24:33;;;;;;;15.25;11.85;;;;;;;18.64;100.00;96106.66;2098760;28;20055;-58
2023/07/16 02:25:34;;;;;;;14.25;8.88;;;;;;;18.62;100.00;96111.22;2098707;28;20048;-58
2023/07/16 02:26:35;;;;;;;15.63;11.13;;;;;;;18.61;100.00;96117.44;2106611;28;20404;-58
2023/07/16 02:27:36;;;;;;;14.85;11.98;;;;;;;18.61;100.00;96122.69;2115489;28;20059;-58
2023/07/16 02:28:38;;;;;;;16.85;11.48;;;;;;;18.63;100.00;96118.13;2116436;28;20055;-58
2023/07/16 02:29:39;;;;;;;14.93;10.65;;;;;;;18.60;100.00;96121.00;2107537;28;20055;-58
2023/07/16 02:30:41;;;;;;;14.80;11.52;;;;;;;18.59;100.00;96120.16;2106817;28;20056;-58
2023/07/16 02:31:45;;;;;;;13.73;10.70;;;;;;;18.60;100.00;96111.31;2098090;28;20067;-58
2023/07/16 02:32:46;;;;;;;15.32;11.52;;;;;;;18.60;100.00;96116.56;2107782;28;20062;-58
2023/07/16 02:33:48;;;;;;;19.23;11.68;;;;;;;18.63;100.00;96121.63;2115944;28;20055;-58
2023/07/16 02:34:49;;;;;;;13.55;10.85;;;;;;;18.56;100.00;96116.94;2116241;28;20058;-58
2023/07/16 02:35:51;;;;;;;14.80;11.02;;;;;;;18.47;100.00;96094.81;2106807;28;20048;-58
2023/07/16 02:36:52;;;;;;;17.80;11.93;;;;;;;18.62;100.00;96112.03;2106958;28;20506;-58
2023/07/16 02:37:54;;;;;;;15.98;11.43;;;;;;;18.53;100.00;96094.34;2107197;28;20120;-58
2023/07/16 02:38:55;;;;;;;16.30;12.35;;;;;;;18.61;100.00;96107.75;2107740;28;20032;-58
2023/07/16 02:39:58;;;;;;;19.40;11.15;;;;;;;18.59;100.00;96108.81;2115601;28;20063;-58
2023/07/16 02:40:59;;;;;;;15.43;9.80;;;;;;;18.51;100.00;96097.09;2115856;28;20058;-58
2023/07/16 02:42:01;;;;;;;13.63;9.63;;;;;;;18.51;100.00;96098.88;2106806;28;20048;-58
2023/07/16 02:43:02;;;;;;;11.43;8.43;;;;;;;18.53;100.00;96099.63;2107543;28;20040;-58
2023/07/16 02:44:04;;;;;;;11.90;8.48;;;;;;;18.51;100.00;96099.72;2107531;28;20479;-58
2023/07/16 02:45:06;;;;;;;10.25;8.07;;;;;;;18.50;100.00;96100.69;2107493;28;20055;-58
2023/07/16 02:46:07;;;;;;;12.32;9.13;;;;;;;18.51;100.00;96096.25;2116019;28;20052;-58
2023/07/16 02:47:08;;;;;;;8.60;6.65;;;;;;;18.47;100.00;96098.31;2106848;28;20063;-57
2023/07/16 02:48:09;;;;;;;8.07;5.60;;;;;;;18.38;100.00;96077.13;2098252;28;20056;-58
2023/07/16 02:49:10;;;;;;;8.40;6.25;;;;;;;18.37;100.00;96096.50;2107336;28;20044;-58
2023/07/16 02:50:12;;;;;;;9.60;6.40;;;;;;;18.36;100.00;96100.91;2106843;28;20052;-58
2023/07/16 02:51:13;;;;;;;7.80;4.97;;;;;;;18.33;100.00;96100.31;2106509;28;20063;-58
2023/07/16 02:52:14;;;;;;;7.00;4.90;;;;;;;18.33;100.00;96097.69;2116358;28;20039;-58
2023/07/16 02:53:15;;;;;;;6.88;5.45;;;;;;;18.30;100.00;96104.84;2116508;28;20356;-58
2023/07/16 02:54:16;;;;;;;6.75;5.70;;;;;;;18.27;100.00;96104.25;2106724;28;20078;-58
2023/07/16 02:55:17;;;;;;;6.25;4.97;;;;;;;18.28;100.00;96112.03;2107077;28;20040;-58
2023/07/16 02:56:18;;;;;;;7.38;5.15;;;;;;;18.29;100.00;96112.84;2106833;28;20048;-57
2023/07/16 02:57:21;;;;;;;6.82;4.60;;;;;;;18.19;100.00;96093.47;2106560;28;20059;-58
2023/07/16 02:58:22;;;;;;;5.85;4.03;;;;;;;18.25;100.00;96101.72;2116265;28;20072;-58
2023/07/16 02:59:23;;;;;;;5.70;4.55;;;;;;;18.14;100.00;96099.06;2116261;28;20047;-58
2023/07/16 03:00:24;;;;;;;8.18;5.25;;;;;;;18.22;100.00;96111.63;2107114;28;20044;-58
2023/07/16 03:01:25;;;;;;;5.88;4.70;;;;;;;18.14;100.00;96100.88;2107404;28;20044;-58
2023/07/16 03:02:26;;;;;;;7.13;4.97;;;;;;;18.21;100.00;96115.22;2098822;28;20154;-58
2023/07/16 03:03:28;;;;;;;7.65;5.25;;;;;;;18.22;100.00;96128.25;2098503;28;20456;-58
2023/07/16 03:04:29;;;;;;;7.00;4.72;;;;;;;18.20;100.00;96124.91;2098830;28;20055;-58
2023/07/16 03:05:30;;;;;;;7.45;5.13;;;;;;;18.21;100.00;96125.75;2098960;28;20059;-58
2023/07/16 03:06:32;;;;;;;5.97;4.93;;;;;;;18.20;100.00;96129.31;2098598;28;20063;-58
2023/07/16 03:07:33;;;;;;;6.13;5.07;;;;;;;18.20;100.00;96119.66;2106991;28;20118;-58
2023/07/16 03:08:34;;;;;;;6.85;4.88;;;;;;;18.19;100.00;96117.13;2115324;28;20074;-58
2023/07/16 03:09:37;;;;;;;7.25;4.88;;;;;;;18.18;100.00;96124.19;2116446;28;20039;-58
2023/07/16 03:10:39;;;;;;;5.80;4.55;;;;;;;18.20;100.00;96127.53;2106937;28;20047;-59
2023/07/16 03:11:40;;;;;;;5.47;4.35;;;;;;;18.17;100.00;96126.91;2106988;28;20066;-58
2023/07/16 03:12:41;;;;;;;5.93;4.32;;;;;;;18.15;100.00;96113.91;2107443;28;20067;-58
2023/07/16 03:13:42;;;;;;;9.02;5.57;;;;;;;18.07;100.00;96090.81;2098513;28;20064;-59
2023/07/16 03:14:44;;;;;;;7.30;5.03;;;;;;;18.17;100.00;96104.09;2090667;28;20045;-58
2023/07/16 03:15:46;;;;;;;8.93;4.70;;;;;;;18.12;100.00;96108.84;2090665;28;20104;-58
2023/07/16 03:16:47;;;;;;;7.20;4.30;;;;;;;18.10;100.00;96118.66;2106990;28;20043;-58
2023/07/16 03:17:49;;;;;;;8.52;4.57;;;;;;;18.04;100.00;96124.38;2107048;28;20475;-58
2023/07/16 03:18:50;;;;;;;6.28;4.35;;;;;;;17.99;100.00;96129.97;2107227;28;20111;-58
2023/07/16 03:19:51;;;;;;;5.13;4.15;;;;;;;17.94;100.00;96118.16;2115234;28;20066;-58
2023/07/16 03:20:52;;;;;;;6.53;4.80;;;;;;;18.01;100.00;96124.59;2116296;28;20051;-58
2023/07/16 03:21:53;;;;;;;6.85;5.25;;;;;;;18.01;100.00;96130.69;2106183;28;20052;-58
2023/07/16 03:22:55;;;;;;;7.75;5.07;;;;;;;18.03;100.00;96138.47;2098100;28;20053;-58
2023/07/16 03:23:56;;;;;;;7.47;4.55;;;;;;;17.99;100.00;96135.25;2098641;28;20045;-58
2023/07/16 03:24:57;;;;;;;6.93;4.95;;;;;;;17.97;100.00;96131.03;2098813;28;20052;-58
2023/07/16 03:25:58;;;;;;;7.60;5.18;;;;;;;17.99;100.00;96137.88;2098476;28;20412;-58
2023/07/16 03:27:00;;;;;;;7.97;5.47;;;;;;;17.97;100.00;96124.00;2097830;28;20131;-58
2023/07/16 03:28:02;;;;;;;7.07;5.25;;;;;;;17.98;100.00;96127.47;2097593;28;20059;-58
2023/07/16 03:29:05;;;;;;;7.93;4.30;;;;;;;17.92;100.00;96117.41;2098729;28;20161;-58
2023/07/16 03:30:07;;;;;;;7.35;4.97;;;;;;;17.96;100.00;96127.59;2098244;28;20048;-58
2023/07/16 03:31:08;;;;;;;6.53;4.65;;;;;;;17.92;100.00;96130.56;2097741;28;20044;-58
2023/07/16 03:32:11;;;;;;;9.23;5.35;;;;;;;17.96;100.00;96139.88;2098716;28;20143;-58
2023/07/16 03:33:12;;;;;;;6.85;4.95;;;;;;;17.95;100.00;96136.41;2106305;28;20048;-58
2023/07/16 03:34:13;;;;;;;6.22;5.22;;;;;;;17.95;100.00;96140.81;2116189;28;20047;-58
2023/07/16 03:35:15;;;;;;;9.02;5.93;;;;;;;17.95;100.00;96135.56;2106635;28;20109;-58
2023/07/16 03:36:18;;;;;;;6.95;5.22;;;;;;;17.94;100.00;96132.13;2097977;28;20055;-58
2023/07/16 03:37:19;;;;;;;9.25;5.30;;;;;;;17.96;100.00;96134.59;2098144;28;20488;-58
2023/07/16 03:38:22;;;;;;;7.35;4.95;;;;;;;17.96;100.00;96131.97;2107168;28;20115;-58
2023/07/16 03:39:24;;;;;;;6.80;5.10;;;;;;;17.96;100.00;96145.13;2106329;28;20058;-58
2023/07/16 03:40:25;;;;;;;8.02;5.15;;;;;;;17.94;100.00;96145.25;2098419;28;20148;-58
2023/07/16 03:41:26;;;;;;;7.63;5.50;;;;;;;17.95;100.00;96138.19;2097876;28;20167;-58
2023/07/16 03:42:27;;;;;;;8.18;5.07;;;;;;;17.92;100.00;96126.13;2098737;28;20060;-58
2023/07/16 03:43:29;;;;;;;9.07;4.90;;;;;;;17.94;100.00;96129.50;2098007;28;20052;-58
2023/07/16 03:44:37;;;;;;;5.40;4.15;;;;;;;17.89;100.00;96125.53;2098865;28;20460;-58
2023/07/16 03:45:38;;;;;;;5.80;4.22;;;;;;;17.92;100.00;96127.91;2097577;28;20048;-58
2023/07/16 03:46:39;;;;;;;8.25;5.18;;;;;;;17.91;100.00;96131.47;2097917;28;20052;-58
2023/07/16 03:47:41;;;;;;;9.70;5.30;;;;;;;17.93;100.00;96135.66;2098208;28;20512;-58
2023/07/16 03:48:42;;;;;;;10.02;5.18;;;;;;;17.92;100.00;96130.56;2098245;28;20056;-58
2023/07/16 03:49:43;;;;;;;9.52;4.97;;;;;;;17.90;100.00;96125.41;2098591;28;20063;-58
2023/07/16 03:50:44;;;;;;;8.32;5.30;;;;;;;17.91;100.00;96139.38;2097701;28;20468;-58
2023/07/16 03:51:45;;;;;;;10.85;6.47;;;;;;;17.93;100.00;96140.09;2098095;28;20061;-58
2023/07/16 03:52:47;;;;;;;10.57;5.82;;;;;;;17.96;100.00;96145.13;2098343;28;20051;-58
2023/07/16 03:53:48;;;;;;;8.85;5.38;;;;;;;17.95;100.00;96151.34;2098289;28;20044;-58
2023/07/16 03:54:49;;;;;;;7.60;5.53;;;;;;;17.93;100.00;96146.19;2098446;28;20049;-58
2023/07/16 03:55:50;;;;;;;8.10;5.60;;;;;;;17.94;100.00;96154.94;2106834;28;20040;-58
2023/07/16 03:56:51;;;;;;;8.57;5.75;;;;;;;17.94;100.00;96162.81;2115723;28;20095;-58
2023/07/16 03:57:52;;;;;;;13.07;6.38;;;;;;;17.93;100.00;96158.50;2115158;28;20070;-58
2023/07/16 03:58:55;;;;;;;10.38;5.25;;;;;;;17.91;100.00;96161.25;2106592;28;20047;-58
2023/07/16 03:59:56;;;;;;;9.95;5.45;;;;;;;17.88;100.00;96155.34;2098426;28;20122;-58
2023/07/16 04:00:58;;;;;;;8.93;5.25;;;;;;;17.89;100.00;96167.56;2098295;28;20048;-58
2023/07/16 04:01:59;;;;;;;7.18;5.28;;;;;;;17.88;100.00;96165.88;2097949;28;20076;-58
2023/07/16 04:03:00;;;;;;;9.75;5.45;;;;;;;17.88;100.00;96166.69;2098650;28;20036;-58
2023/07/16 04:04:01;;;;;;;7.50;5.30;;;;;;;17.88;100.00;96164.06;2106765;28;20048;-58
2023/07/16 04:05:03;;;;;;;7.88;5.53;;;;;;;17.87;100.00;96158.94;2115768;28;20123;-58
2023/07/16 04:06:09;;;;;;;7.63;5.43;;;;;;;17.88;100.00;96157.97;2106075;28;20048;-58
2023/07/16 04:07:10;;;;;;;11.05;5.78;;;;;;;17.88;100.00;96152.72;2106029;28;20055;-58
2023/07/16 04:08:11;;;;;;;8.63;5.60;;;;;;;17.92;100.00;96162.06;2107493;28;20063;-59
2023/07/16 04:09:12;;;;;;;9.00;5.35;;;;;;;17.83;100.00;96151.31;2107071;28;20379;-58
2023/07/16 04:10:14;;;;;;;9.60;5.72;;;;;;;17.93;100.00;96171.63;2106895;28;20063;-58
2023/07/16 04:11:15;;;;;;;7.78;5.43;;;;;;;17.94;100.00;96173.31;2106907;28;20078;-58
2023/07/16 04:12:16;;;;;;;7.40;5.45;;;;;;;17.90;100.00;96163.97;2106879;28;20063;-58
2023/07/16 04:13:17;;;;;;;9.43;5.95;;;;;;;17.94;100.00;96168.06;2107401;28;20039;-58
2023/07/16 04:14:18;;;;;;;7.50;5.65;;;;;;;17.85;100.00;96154.66;2107342;28;20051;-58
2023/07/16 04:15:19;;;;;;;8.45;6.10;;;;;;;17.96;100.00;96168.75;2107159;28;20519;-59
2023/07/16 04:16:20;;;;;;;10.43;7.03;;;;;;;17.95;100.00;96167.94;2106490;28;20058;-58
2023/07/16 04:17:21;;;;;;;12.15;7.15;;;;;;;17.98;100.00;96172.97;2107382;28;20052;-58
2023/07/16 04:18:23;;;;;;;8.48;6.45;;;;;;;17.98;100.00;96175.59;2107510;28;20383;-58
2023/07/16 04:19:24;;;;;;;9.98;6.80;;;;;;;18.00;100.00;96186.81;2106497;28;20478;-58
2023/07/16 04:20:25;;;;;;;10.57;6.60;;;;;;;18.01;100.00;96185.03;2106611;28;20044;-58
2023/07/16 04:21:26;;;;;;;10.27;7.68;;;;;;;18.01;100.00;96191.13;2107315;28;20051;-58
2023/07/16 04:22:27;;;;;;;9.63;7.45;;;;;;;18.03;100.00;96180.50;2106973;28;20059;-58
2023/07/16 04:23:28;;;;;;;11.23;7.72;;;;;;;18.01;100.00;96185.88;2107446;28;20088;-58
2023/07/16 04:24:29;;;;;;;9.35;6.88;;;;;;;18.01;100.00;96193.75;2107366;28;20420;-58
2023/07/16 04:25:30;;;;;;;11.90;7.05;;;;;;;18.06;100.00;96185.53;2107421;28;20048;-58
2023/07/16 04:26:32;;;;;;;9.02;6.90;;;;;;;18.07;100.00;96192.47;2107345;28;20044;-59
2023/07/16 04:27:33;;;;;;;8.20;6.18;;;;;;;18.08;100.00;96186.25;2107167;28;20388;-58
2023/07/16 04:28:34;;;;;;;6.55;5.40;;;;;;;17.95;100.00;96178.44;2106871;28;20054;-58
2023/07/16 04:29:35;;;;;;;8.68;5.32;;;;;;;17.96;100.00;96181.91;2106999;28;20061;-58
2023/07/16 04:30:39;;;;;;;9.75;5.55;;;;;;;18.03;100.00;96189.22;2107311;28;20059;-58
2023/07/16 04:31:40;;;;;;;7.82;5.47;;;;;;;18.01;100.00;96193.75;2106556;28;20051;-58
2023/07/16 04:32:41;;;;;;;8.02;5.03;;;;;;;18.04;100.00;96197.94;2106533;28;20483;-58
2023/07/16 04:33:43;;;;;;;6.78;5.28;;;;;;;18.03;100.00;96193.66;2106922;28;20051;-58
2023/07/16 04:34:44;;;;;;;7.63;5.63;;;;;;;18.05;100.00;96197.84;2106819;28;20055;-58
2023/07/16 04:35:45;;;;;;;9.38;5.65;;;;;;;18.07;100.00;96197.72;2107220;28;20044;-58
2023/07/16 04:36:46;;;;;;;7.97;6.05;;;;;;;18.02;100.00;96184.09;2106725;28;20060;-58
2023/07/16 04:37:47;;;;;;;8.82;5.60;;;;;;;18.08;100.00;96194.16;2107116;28;20106;-56
2023/07/16 04:38:48;;;;;;;6.80;5.10;;;;;;;18.04;100.00;96197.94;2107175;28;20063;-58
2023/07/16 04:39:49;;;;;;;7.60;5.70;;;;;;;18.07;100.00;96197.72;2107039;28;20044;-58
2023/07/16 04:40:51;;;;;;;5.80;4.88;;;;;;;18.10;100.00;96205.38;2106642;28;20056;-58
2023/07/16 04:41:52;;;;;;;8.15;5.70;;;;;;;18.13;100.00;96201.69;2107228;28;20403;-58
2023/07/16 04:42:53;;;;;;;8.50;5.25;;;;;;;18.12;100.00;96207.88;2107061;28;20048;-58
2023/07/16 04:43:54;;;;;;;8.85;5.53;;;;;;;18.13;100.00;96204.31;2107231;28;20047;-58
2023/07/16 04:44:55;;;;;;;8.20;5.50;;;;;;;18.12;100.00;96205.25;2106213;28;20498;-58
2023/07/16 04:45:56;;;;;;;7.28;4.85;;;;;;;18.15;100.00;96203.25;2106755;28;20047;-58